Time;durP1;ratioP1;P1;durP2;ratioP2;P2;SDS_P1;SDS_P2;PMS_P1;PMS_P2;Temp;Humidity;BMP_temperature;BMP_pressure;BME280_temperature;BME280_humidity;BME280_pressure;Samples;Min_cycle;Max_cycle;Signal;HPM_P1;HPM_P2
2024/04/20 00:01:41;;;;;;;15.00;9.03;;;4.80;99.90;;;;;;5537107;25;20336;-66
2024/04/20 00:04:31;;;;;;;14.77;8.67;;;4.80;99.90;;;;;;5542486;25;20345;-65
2024/04/20 00:07:20;;;;;;;13.40;8.03;;;4.70;99.90;;;;;;5552868;25;20720;-66
2024/04/20 00:10:12;;;;;;;13.97;8.57;;;4.70;99.90;;;;;;5533048;25;20228;-65
2024/04/20 00:13:01;;;;;;;15.07;8.70;;;4.80;99.90;;;;;;5546042;25;20333;-66
2024/04/20 00:15:51;;;;;;;17.33;10.30;;;4.80;99.90;;;;;;5531981;25;20620;-66
2024/04/20 00:18:40;;;;;;;13.90;8.73;;;4.80;99.90;;;;;;5522381;25;20277;-66
2024/04/20 00:21:29;;;;;;;14.37;9.57;;;4.80;99.90;;;;;;5535368;25;20265;-65
2024/04/20 00:24:19;;;;;;;18.73;9.90;;;4.80;99.90;;;;;;5520022;25;20976;-66
2024/04/20 00:27:11;;;;;;;19.40;10.83;;;4.80;99.90;;;;;;5536653;25;20329;-66
2024/04/20 00:30:00;;;;;;;16.13;10.63;;;4.80;1.00;;;;;;5554816;25;20272;-66
2024/04/20 00:32:50;;;;;;;15.43;10.03;;;4.80;99.90;;;;;;5553441;25;20563;-66
2024/04/20 00:35:40;;;;;;;17.83;11.00;;;4.80;99.90;;;;;;5534785;25;20227;-66
2024/04/20 00:38:29;;;;;;;19.23;11.50;;;4.90;99.90;;;;;;5552903;25;20231;-65
2024/04/20 00:41:19;;;;;;;18.80;10.93;;;4.90;1.00;;;;;;5541495;25;20334;-66
2024/04/20 00:44:11;;;;;;;17.60;10.50;;;4.90;1.00;;;;;;5527092;25;20628;-65
2024/04/20 00:47:02;;;;;;;16.77;9.63;;;4.80;1.00;;;;;;5540249;25;20337;-65
2024/04/20 00:49:51;;;;;;;21.80;11.20;;;4.90;1.00;;;;;;5540202;25;20274;-65
2024/04/20 00:52:40;;;;;;;19.07;11.23;;;4.80;99.90;;;;;;5531492;25;20800;-66
2024/04/20 00:55:30;;;;;;;19.07;11.07;;;4.80;99.90;;;;;;5524389;25;20239;-65
2024/04/20 00:58:19;;;;;;;17.27;10.50;;;4.80;1.00;;;;;;5528627;25;20626;-67
2024/04/20 01:01:12;;;;;;;16.93;10.37;;;4.90;99.90;;;;;;5544822;25;20291;-65
2024/04/20 01:04:01;;;;;;;19.80;11.73;;;4.90;1.00;;;;;;5532796;25;20621;-66
2024/04/20 01:06:50;;;;;;;18.83;11.23;;;4.90;44.60;;;;;;5545868;25;20329;-67
2024/04/20 01:09:40;;;;;;;16.53;10.80;;;4.90;99.90;;;;;;5544246;25;20289;-66
2024/04/20 01:12:29;;;;;;;17.33;10.63;;;4.90;99.90;;;;;;5545048;25;20235;-66
2024/04/20 01:15:18;;;;;;;17.23;10.37;;;5.00;1.00;;;;;;5545026;25;20629;-66
2024/04/20 01:18:10;;;;;;;18.80;10.43;;;5.00;1.00;;;;;;5531852;25;20268;-66
2024/04/20 01:21:00;;;;;;;18.70;9.93;;;4.90;1.00;;;;;;5556106;25;20641;-65
2024/04/20 01:23:51;;;;;;;19.10;10.93;;;5.00;99.90;;;;;;5556637;25;20337;-66
2024/04/20 01:26:43;;;;;;;17.87;10.30;;;4.90;1.00;;;;;;5540509;25;20277;-66
2024/04/20 01:29:32;;;;;;;17.27;9.00;;;4.90;99.90;;;;;;5522169;25;20339;-65
2024/04/20 01:32:21;;;;;;;17.07;10.90;;;4.90;1.00;;;;;;5540894;25;20226;-66
2024/04/20 01:35:11;;;;;;;14.33;8.07;;;4.90;99.90;;;;;;5552510;25;20629;-65
2024/04/20 01:38:00;;;;;;;9.23;6.03;;;4.90;99.90;;;;;;5549266;25;20230;-66
2024/04/20 01:40:49;;;;;;;10.43;6.13;;;4.90;1.00;;;;;;5527881;25;20231;-66
2024/04/20 01:43:41;;;;;;;10.23;5.00;;;4.90;1.00;;;;;;5543777;25;20643;-66
2024/04/20 01:46:31;;;;;;;7.77;5.00;;;4.90;1.00;;;;;;5534577;25;20702;-65
2024/04/20 01:49:20;;;;;;;7.50;5.07;;;4.80;1.00;;;;;;5531283;25;20333;-65
2024/04/20 01:52:11;;;;;;;6.50;4.30;;;4.90;99.90;;;;;;5529529;25;20336;-66
2024/04/20 01:55:00;;;;;;;3.23;2.03;;;4.80;1.00;;;;;;5537776;25;20275;-66
2024/04/20 01:57:49;;;;;;;6.17;3.97;;;4.90;99.90;;;;;;5539155;25;20239;-66
2024/04/20 02:00:41;;;;;;;6.17;3.80;;;4.90;87.30;;;;;;5527799;25;20282;-66
2024/04/20 02:03:31;;;;;;;5.90;3.67;;;4.90;90.90;;;;;;5523905;25;20302;-66
2024/04/20 02:06:20;;;;;;;6.90;4.07;;;4.80;99.90;;;;;;5529990;25;20322;-66
2024/04/20 02:09:11;;;;;;;4.53;3.73;;;4.90;1.00;;;;;;5471583;26;20301;-66
2024/04/20 02:12:00;;;;;;;5.00;4.17;;;4.90;1.00;;;;;;5492485;26;20224;-66
2024/04/20 02:14:49;;;;;;;7.80;4.63;;;4.90;1.00;;;;;;5519661;25;20238;-66
2024/04/20 02:17:41;;;;;;;9.53;4.83;;;4.80;99.90;;;;;;5521223;25;20269;-66
2024/04/20 02:20:31;;;;;;;5.67;4.27;;;4.80;99.90;;;;;;5521909;25;20339;-66
2024/04/20 02:23:20;;;;;;;5.87;3.93;;;4.80;1.00;;;;;;5542470;25;20583;-66
2024/04/20 02:26:09;;;;;;;5.63;3.80;;;4.80;99.90;;;;;;5521154;25;20282;-67
2024/04/20 02:28:59;;;;;;;6.63;4.43;;;4.80;99.90;;;;;;5553363;25;20227;-65
2024/04/20 02:31:48;;;;;;;5.20;3.30;;;4.90;1.00;;;;;;5540117;25;20228;-66
2024/04/20 02:34:40;;;;;;;4.03;2.83;;;4.80;99.90;;;;;;5551024;25;20608;-66
2024/04/20 02:37:30;;;;;;;3.57;2.50;;;4.80;99.90;;;;;;5528459;25;20260;-66
2024/04/20 02:40:20;;;;;;;3.67;2.10;;;4.80;1.00;;;;;;5538298;25;20231;-66
2024/04/20 02:43:09;;;;;;;3.10;2.10;;;4.90;1.00;;;;;;5522494;25;20279;-66
2024/04/20 02:45:59;;;;;;;3.47;1.60;;;4.80;1.00;;;;;;5527934;25;20298;-67
2024/04/20 02:48:48;;;;;;;1.80;1.60;;;4.80;99.90;;;;;;5539444;25;20343;-67
2024/04/20 02:51:40;;;;;;;3.60;1.93;;;4.80;12.00;;;;;;5552410;25;20713;-66
2024/04/20 02:54:30;;;;;;;3.50;2.17;;;4.80;1.00;;;;;;5528283;25;20899;-67
2024/04/20 02:57:19;;;;;;;4.73;2.40;;;4.80;1.00;;;;;;5540377;25;20234;-67
2024/04/20 03:00:10;;;;;;;2.70;2.17;;;4.90;1.00;;;;;;5537836;25;20641;-66
2024/04/20 03:02:59;;;;;;;3.03;2.10;;;4.80;1.00;;;;;;5498667;26;20236;-66
2024/04/20 03:05:48;;;;;;;3.90;2.33;;;4.80;1.00;;;;;;5486068;26;20225;-66
2024/04/20 03:08:40;;;;;;;4.57;2.57;;;4.80;60.80;;;;;;5488724;26;20336;-67
2024/04/20 03:11:29;;;;;;;6.30;2.67;;;4.80;99.90;;;;;;5521094;25;20266;-66
2024/04/20 03:14:19;;;;;;;4.37;2.57;;;4.80;1.00;;;;;;5525079;25;20227;-66
2024/04/20 03:17:08;;;;;;;3.93;2.53;;;4.80;1.00;;;;;;5550834;25;20337;-67
2024/04/20 03:19:57;;;;;;;5.03;2.43;;;4.80;1.00;;;;;;5525685;25;20288;-66
2024/04/20 03:22:47;;;;;;;4.33;2.63;;;4.80;1.00;;;;;;5538960;25;20300;-67
2024/04/20 03:25:39;;;;;;;3.03;2.53;;;4.70;53.30;;;;;;5523147;25;20332;-66
2024/04/20 03:28:28;;;;;;;3.63;2.80;;;4.70;99.90;;;;;;5550271;25;20816;-66
2024/04/20 03:31:18;;;;;;;4.63;2.90;;;4.70;1.00;;;;;;5532549;25;20226;-66
2024/04/20 03:34:07;;;;;;;5.27;2.97;;;4.70;1.00;;;;;;5549218;25;20294;-66
2024/04/20 03:36:57;;;;;;;3.40;2.70;;;4.70;43.40;;;;;;5537696;25;20714;-67
2024/04/20 03:39:46;;;;;;;3.73;2.70;;;4.70;99.90;;;;;;5541570;25;20243;-66
2024/04/20 03:42:38;;;;;;;3.17;2.33;;;4.70;1.00;;;;;;5534996;25;20322;-66
2024/04/20 03:45:28;;;;;;;4.27;2.90;;;4.70;1.00;;;;;;5530609;25;20339;-67
2024/04/20 03:48:17;;;;;;;3.80;2.60;;;4.70;15.60;;;;;;5531651;25;20279;-66
2024/04/20 03:51:07;;;;;;;3.90;2.53;;;4.70;69.90;;;;;;5526774;25;20777;-67
2024/04/20 03:53:56;;;;;;;4.10;2.73;;;4.60;99.90;;;;;;5523257;25;20713;-67
2024/04/20 03:56:46;;;;;;;7.53;4.33;;;4.70;1.00;;;;;;5501163;25;20305;-67
2024/04/20 03:59:38;;;;;;;5.17;3.40;;;4.70;1.00;;;;;;5501872;25;20324;-67
2024/04/20 04:02:27;;;;;;;6.87;3.50;;;4.70;1.00;;;;;;5484926;25;20245;-67
2024/04/20 04:05:17;;;;;;;7.30;4.17;;;4.80;1.00;;;;;;5485150;25;20236;-67
2024/04/20 04:08:07;;;;;;;6.97;3.60;;;4.80;1.00;;;;;;5486353;26;20271;-66
2024/04/20 04:10:56;;;;;;;5.93;3.93;;;4.80;1.00;;;;;;5491854;26;20275;-67
2024/04/20 04:13:45;;;;;;;5.87;2.90;;;4.80;1.00;;;;;;5511812;25;20229;-66
2024/04/20 04:16:37;;;;;;;4.47;2.67;;;4.90;1.00;;;;;;5539957;25;20282;-67
2024/04/20 04:19:27;;;;;;;4.90;2.53;;;4.80;99.90;;;;;;5523181;25;20275;-66
2024/04/20 04:22:16;;;;;;;4.17;2.60;;;4.80;99.90;;;;;;5524742;25;20283;-68
2024/04/20 04:25:06;;;;;;;5.07;3.07;;;4.80;99.90;;;;;;5503215;25;20284;-66
2024/04/20 04:27:55;;;;;;;6.40;3.40;;;4.80;99.90;;;;;;5518374;25;20338;-67
2024/04/20 04:30:44;;;;;;;6.03;3.47;;;4.80;99.90;;;;;;5506833;25;20287;-67
2024/04/20 04:33:36;;;;;;;7.13;3.43;;;4.80;1.00;;;;;;5515638;25;20270;-67
2024/04/20 04:36:26;;;;;;;4.77;2.87;;;4.80;1.00;;;;;;5509163;25;20276;-66
2024/04/20 04:39:16;;;;;;;6.93;3.40;;;4.70;1.00;;;;;;5535329;25;20239;-67
2024/04/20 04:42:06;;;;;;;6.40;3.37;;;4.80;1.00;;;;;;5488679;25;22500;-67
2024/04/20 04:44:56;;;;;;;7.70;3.20;;;4.80;1.00;;;;;;5500870;25;20568;-67
2024/04/20 04:47:46;;;;;;;3.10;2.27;;;4.80;99.90;;;;;;5509114;25;20711;-66
2024/04/20 04:50:38;;;;;;;3.03;1.87;;;4.80;1.00;;;;;;5549332;25;20310;-66
2024/04/20 04:53:28;;;;;;;2.20;1.37;;;4.80;99.90;;;;;;5487271;25;20698;-66
2024/04/20 04:56:17;;;;;;;1.77;1.33;;;4.70;1.00;;;;;;5513478;25;20627;-66
2024/04/20 04:59:06;;;;;;;2.07;1.33;;;4.70;99.90;;;;;;5495351;25;20348;-66
2024/04/20 05:01:56;;;;;;;3.50;1.53;;;4.70;1.00;;;;;;5504946;25;20273;-66
2024/04/20 05:04:45;;;;;;;2.33;1.40;;;4.80;1.00;;;;;;5534681;25;20630;-66
2024/04/20 05:07:37;;;;;;;2.13;1.53;;;4.90;1.00;;;;;;5526432;25;20275;-66
2024/04/20 05:10:27;;;;;;;2.17;1.47;;;5.00;1.00;;;;;;5513548;25;20236;-67
2024/04/20 05:13:16;;;;;;;3.43;1.70;;;5.10;1.00;;;;;;5484957;26;20232;-66
2024/04/20 05:16:06;;;;;;;2.20;1.47;;;5.20;99.90;;;;;;5485697;25;20340;-66
2024/04/20 05:18:56;;;;;;;1.67;1.57;;;5.30;1.00;;;;;;5489699;25;20411;-66
2024/04/20 05:21:45;;;;;;;2.80;2.07;;;5.50;99.90;;;;;;5476445;25;20336;-66
2024/04/20 05:24:37;;;;;;;3.97;2.07;;;5.30;47.70;;;;;;5521555;25;20226;-66
2024/04/20 05:27:26;;;;;;;2.40;1.83;;;5.40;1.00;;;;;;5489431;26;20242;-66
2024/04/20 05:30:16;;;;;;;2.37;1.60;;;5.60;1.00;;;;;;5509867;25;20231;-66
2024/04/20 05:33:05;;;;;;;2.90;2.10;;;5.90;1.00;;;;;;5504766;25;20297;-66
2024/04/20 05:35:54;;;;;;;3.13;2.10;;;5.90;1.00;;;;;;5538814;25;20318;-67
2024/04/20 05:38:44;;;;;;;3.93;2.23;;;5.90;1.00;;;;;;5500496;25;20709;-66
2024/04/20 05:41:36;;;;;;;2.90;2.30;;;5.90;1.00;;;;;;5514863;25;20341;-66
2024/04/20 05:44:27;;;;;;;4.70;2.30;;;5.80;1.00;;;;;;5525526;25;20240;-66
2024/04/20 05:47:17;;;;;;;4.20;2.70;;;5.80;1.00;;;;;;5519886;25;20335;-66
2024/04/20 05:50:07;;;;;;;4.07;2.67;;;5.80;99.90;;;;;;5510057;25;20229;-66
2024/04/20 05:52:56;;;;;;;4.70;2.67;;;5.80;99.90;;;;;;5513593;25;20271;-66
2024/04/20 05:55:46;;;;;;;3.57;2.37;;;5.70;99.90;;;;;;5525503;25;20244;-66
2024/04/20 05:58:38;;;;;;;4.47;2.80;;;5.70;1.00;;;;;;5515497;25;20290;-66
2024/04/20 06:01:27;;;;;;;4.33;2.30;;;5.70;78.60;;;;;;5530204;25;20284;-66
2024/04/20 06:04:16;;;;;;;6.37;3.27;;;6.00;1.00;;;;;;5521620;25;20235;-66
2024/04/20 06:07:06;;;;;;;4.17;3.07;;;6.00;1.00;;;;;;5528295;25;20341;-66
2024/04/20 06:09:55;;;;;;;6.47;3.00;;;6.00;1.00;;;;;;5514743;25;20507;-66
2024/04/20 06:12:44;;;;;;;5.13;2.80;;;6.10;1.00;;;;;;5515829;25;20298;-67
2024/04/20 06:15:36;;;;;;;5.03;2.90;;;6.10;1.00;;;;;;5506074;26;20640;-66
2024/04/20 06:18:26;;;;;;;7.43;2.80;;;6.00;3.40;;;;;;5498810;25;20232;-66
2024/04/20 06:21:15;;;;;;;4.87;3.10;;;6.00;1.00;;;;;;5495665;25;20272;-66
2024/04/20 06:24:04;;;;;;;3.63;2.43;;;6.00;1.00;;;;;;5506176;25;20597;-66
2024/04/20 06:26:54;;;;;;;4.00;2.70;;;5.80;99.90;;;;;;5497460;25;20327;-65
2024/04/20 06:29:43;;;;;;;2.47;1.70;;;5.70;99.90;;;;;;5508223;25;20624;-65
2024/04/20 06:32:35;;;;;;;3.53;2.47;;;5.80;34.00;;;;;;5496399;25;20283;-65
2024/04/20 06:35:24;;;;;;;4.10;2.50;;;5.90;41.80;;;;;;5489069;25;20704;-65
2024/04/20 06:38:14;;;;;;;3.03;2.33;;;5.90;1.00;;;;;;5501586;25;20224;-66
2024/04/20 06:41:04;;;;;;;3.23;2.10;;;5.90;99.90;;;;;;5502984;25;20653;-65
2024/04/20 06:43:57;;;;;;;3.70;2.27;;;5.90;1.00;;;;;;5484654;25;20286;-65
2024/04/20 06:46:47;;;;;;;2.37;1.70;;;6.10;99.90;;;;;;5491806;25;20272;-67
2024/04/20 06:49:39;;;;;;;3.37;1.80;;;6.00;99.90;;;;;;5527368;25;20229;-66
2024/04/20 06:52:29;;;;;;;2.60;2.03;;;6.00;99.90;;;;;;5513365;25;20292;-66
2024/04/20 06:55:18;;;;;;;4.47;2.00;;;6.00;99.90;;;;;;5502218;25;20303;-66
2024/04/20 06:58:07;;;;;;;3.13;2.00;;;5.80;99.90;;;;;;5534692;25;20292;-65
2024/04/20 07:00:57;;;;;;;2.77;1.93;;;5.90;1.00;;;;;;5533587;25;20274;-65
2024/04/20 07:03:46;;;;;;;2.10;1.90;;;5.80;1.00;;;;;;5534254;25;20228;-65
2024/04/20 07:06:38;;;;;;;3.17;2.30;;;5.80;1.00;;;;;;5531463;25;20230;-65
2024/04/20 07:09:27;;;;;;;4.03;2.53;;;5.80;1.00;;;;;;5533719;25;20310;-65
2024/04/20 07:12:17;;;;;;;5.27;2.87;;;5.80;1.00;;;;;;5544435;25;20286;-65
2024/04/20 07:15:07;;;;;;;6.77;4.13;;;5.80;1.00;;;;;;5535755;25;20333;-65
2024/04/20 07:17:56;;;;;;;7.83;4.83;;;5.70;99.90;;;;;;5528602;25;20341;-65
2024/04/20 07:20:45;;;;;;;6.17;3.67;;;5.60;1.00;;;;;;5535208;25;20346;-65
2024/04/20 07:23:37;;;;;;;8.30;5.77;;;5.70;1.00;;;;;;5547046;25;20240;-66
2024/04/20 07:26:28;;;;;;;9.87;5.47;;;5.50;99.90;;;;;;5539301;25;20347;-66
2024/04/20 07:29:17;;;;;;;7.53;5.43;;;5.40;99.90;;;;;;5543293;25;20228;-66
2024/04/20 07:32:07;;;;;;;9.00;4.53;;;5.50;1.00;;;;;;5522916;25;20328;-65
2024/04/20 07:34:56;;;;;;;8.50;5.47;;;5.60;99.90;;;;;;5538209;25;20265;-66
2024/04/20 07:37:45;;;;;;;8.13;5.27;;;5.60;1.00;;;;;;5537894;25;20291;-67
2024/04/20 07:40:38;;;;;;;11.07;5.53;;;5.70;1.00;;;;;;5538926;25;20240;-67
2024/04/20 07:43:27;;;;;;;8.60;5.13;;;5.70;99.90;;;;;;5530477;25;20337;-66
2024/04/20 07:46:16;;;;;;;8.70;5.20;;;5.70;99.90;;;;;;5545584;25;20325;-66
2024/04/20 07:49:06;;;;;;;6.03;4.77;;;6.00;99.90;;;;;;5536953;25;20239;-66
2024/04/20 07:51:55;;;;;;;7.60;5.10;;;6.10;99.90;;;;;;5544925;25;20778;-66
2024/04/20 07:54:44;;;;;;;23.53;4.73;;;6.30;1.00;;;;;;5530714;25;20794;-65
2024/04/20 07:57:37;;;;;;;7.63;5.27;;;6.40;99.90;;;;;;5534635;25;20731;-66
2024/04/20 08:00:26;;;;;;;8.20;4.63;;;6.30;99.90;;;;;;5521905;25;20341;-65
2024/04/20 08:03:17;;;;;;;7.47;4.50;;;6.30;1.00;;;;;;5557922;25;20715;-65
2024/04/20 08:06:06;;;;;;;7.43;4.47;;;6.20;1.00;;;;;;5520273;25;20576;-66
2024/04/20 08:08:56;;;;;;;11.20;4.37;;;6.20;99.90;;;;;;5519456;25;20244;-65
2024/04/20 08:11:45;;;;;;;7.00;4.50;;;6.30;1.00;;;;;;5525462;25;20287;-66
2024/04/20 08:14:37;;;;;;;8.27;4.50;;;6.50;99.90;;;;;;5528844;25;20734;-66
2024/04/20 08:17:27;;;;;;;6.10;4.73;;;6.40;99.90;;;;;;5550789;25;20773;-65
2024/04/20 08:20:16;;;;;;;4.77;3.90;;;6.90;99.90;;;;;;5518029;25;20718;-65
2024/04/20 08:23:06;;;;;;;5.70;3.47;;;7.00;1.00;;;;;;5527010;25;20270;-65
2024/04/20 08:25:55;;;;;;;3.37;2.70;;;7.10;1.00;;;;;;5522388;25;20341;-65
2024/04/20 08:28:44;;;;;;;3.17;2.20;;;7.10;99.90;;;;;;5532687;25;20229;-65
2024/04/20 08:31:36;;;;;;;3.93;2.60;;;7.00;1.00;;;;;;5527664;25;20238;-65
2024/04/20 08:34:26;;;;;;;2.57;1.63;;;6.90;1.00;;;;;;5529237;25;20345;-65
2024/04/20 08:37:15;;;;;;;6.57;2.60;;;6.70;99.90;;;;;;5525169;25;20276;-65
2024/04/20 08:40:04;;;;;;;3.97;2.30;;;6.60;1.00;;;;;;5544961;25;20387;-65
2024/04/20 08:42:54;;;;;;;3.50;1.73;;;6.40;1.00;;;;;;5516827;25;20639;-65
2024/04/20 08:45:44;;;;;;;4.00;2.70;;;6.40;1.00;;;;;;5542997;25;20330;-65
2024/04/20 08:48:36;;;;;;;2.80;2.33;;;6.20;99.90;;;;;;5526588;25;20364;-65
2024/04/20 08:51:26;;;;;;;4.33;1.50;;;6.20;99.90;;;;;;5510664;25;20233;-65
2024/04/20 08:54:15;;;;;;;2.13;1.70;;;6.10;99.90;;;;;;5529298;25;20332;-65
2024/04/20 08:57:07;;;;;;;1.93;1.73;;;6.20;1.00;;;;;;5527847;25;20632;-66
2024/04/20 08:59:56;;;;;;;2.80;1.60;;;6.40;99.90;;;;;;5517876;25;20229;-64
2024/04/20 09:02:45;;;;;;;1.83;1.50;;;6.70;63.10;;;;;;5524541;25;20773;-65
2024/04/20 09:05:37;;;;;;;2.67;1.70;;;6.90;1.00;;;;;;5524694;25;20230;-65
2024/04/20 09:08:27;;;;;;;3.40;1.70;;;7.20;1.00;;;;;;5521941;25;20767;-65
2024/04/20 09:11:16;;;;;;;1.50;1.10;;;7.10;1.00;;;;;;5519286;25;20362;-65
2024/04/20 09:14:06;;;;;;;1.40;0.83;;;7.20;1.00;;;;;;5523226;25;20242;-65
2024/04/20 09:16:55;;;;;;;1.37;0.93;;;7.10;1.00;;;;;;5521447;25;20230;-65
2024/04/20 09:19:45;;;;;;;1.20;1.10;;;6.90;99.90;;;;;;5515329;25;20294;-66
2024/04/20 09:22:37;;;;;;;2.50;1.30;;;6.80;99.90;;;;;;5512883;25;20241;-67
2024/04/20 09:25:26;;;;;;;1.57;1.03;;;6.80;99.90;;;;;;5531328;25;20245;-65
2024/04/20 09:28:16;;;;;;;2.17;1.23;;;6.90;1.00;;;;;;5522472;25;20276;-65
2024/04/20 09:31:06;;;;;;;2.57;1.30;;;6.90;1.00;;;;;;5522043;25;20804;-66
2024/04/20 09:33:55;;;;;;;1.50;0.87;;;7.10;1.00;;;;;;5520677;25;20318;-65
2024/04/20 09:36:45;;;;;;;1.37;1.20;;;7.20;99.90;;;;;;5533501;25;20292;-65
2024/04/20 09:39:37;;;;;;;1.77;1.40;;;7.30;1.00;;;;;;5520832;25;20313;-65
2024/04/20 09:42:26;;;;;;;1.53;1.20;;;7.30;1.00;;;;;;5527648;25;20796;-65
2024/04/20 09:45:15;;;;;;;1.70;0.73;;;7.30;99.90;;;;;;5520180;25;20308;-64
2024/04/20 09:48:05;;;;;;;2.70;1.60;;;7.10;1.00;;;;;;5529915;25;20228;-65
2024/04/20 09:51:08;;;;;;;4.67;1.70;;;7.20;99.90;;;;;;5534914;25;20721;-64
2024/04/20 09:53:57;;;;;;;2.17;1.30;;;7.40;1.00;;;;;;5544534;25;20320;-65
2024/04/20 09:56:49;;;;;;;2.67;1.23;;;7.00;1.00;;;;;;5540770;25;20236;-65
2024/04/20 09:59:38;;;;;;;2.87;1.23;;;6.40;99.90;;;;;;5535835;25;20793;-65
2024/04/20 10:02:28;;;;;;;2.20;1.60;;;6.10;99.90;;;;;;5546313;25;20246;-66
2024/04/20 10:05:18;;;;;;;3.37;1.73;;;5.80;99.90;;;;;;5553378;25;20295;-65
2024/04/20 10:08:08;;;;;;;1.67;1.47;;;5.80;1.00;;;;;;5533629;25;20334;-65
2024/04/20 10:10:57;;;;;;;3.43;1.63;;;5.80;99.90;;;;;;5562757;25;20227;-65
2024/04/20 10:13:50;;;;;;;1.00;0.90;;;5.60;1.00;;;;;;5550871;25;20680;-65
2024/04/20 10:16:40;;;;;;;1.53;0.90;;;5.60;1.00;;;;;;5558276;25;20335;-65
2024/04/20 10:19:38;;;;;;;2.10;1.90;;;5.60;1.00;;;;;;5537734;25;20279;-65
2024/04/20 10:22:28;;;;;;;2.50;1.63;;;5.40;1.00;;;;;;5522188;25;20227;-65
2024/04/20 10:25:17;;;;;;;4.37;1.80;;;5.50;1.00;;;;;;5519389;25;20286;-65
2024/04/20 10:28:07;;;;;;;1.50;0.73;;;5.60;99.90;;;;;;5524401;25;20240;-65
2024/04/20 10:30:59;;;;;;;1.90;1.30;;;5.60;1.00;;;;;;5516528;25;20281;-65
2024/04/20 10:33:48;;;;;;;1.60;1.10;;;5.70;99.90;;;;;;5541831;25;20793;-64
2024/04/20 10:36:38;;;;;;;2.17;1.53;;;5.90;99.90;;;;;;5530332;25;20235;-64
2024/04/20 10:39:29;;;;;;;5.50;2.30;;;5.80;99.90;;;;;;5541778;25;20718;-65
2024/04/20 10:42:26;;;;;;;4.20;2.67;;;5.90;99.90;;;;;;5534235;25;20234;-65
2024/04/20 10:45:16;;;;;;;4.33;2.70;;;6.00;1.00;;;;;;5520927;25;20942;-65
2024/04/20 10:48:10;;;;;;;4.17;2.30;;;5.80;1.00;;;;;;5538840;25;20236;-65
2024/04/20 10:51:01;;;;;;;4.00;2.57;;;6.20;1.00;;;;;;5529001;25;20335;-65
2024/04/20 10:53:58;;;;;;;3.17;2.57;;;6.50;99.90;;;;;;5541299;25;20228;-65
2024/04/20 10:56:49;;;;;;;4.03;2.53;;;6.70;99.90;;;;;;5536283;25;20350;-65
2024/04/20 10:59:38;;;;;;;3.60;2.37;;;6.90;99.90;;;;;;5536435;25;20294;-65
2024/04/20 11:02:27;;;;;;;5.17;3.00;;;7.30;99.90;;;;;;5543185;25;20305;-66
2024/04/20 11:05:19;;;;;;;3.50;2.40;;;7.60;99.90;;;;;;5552105;25;20295;-65
2024/04/20 11:08:11;;;;;;;2.30;1.60;;;8.20;1.00;;;;;;5563028;25;20240;-64
2024/04/20 11:11:02;;;;;;;2.03;1.70;;;7.90;1.00;;;;;;5555250;25;20226;-65
2024/04/20 11:14:00;;;;;;;3.83;1.63;;;8.50;1.00;;;;;;5538937;25;20231;-65
2024/04/20 11:16:50;;;;;;;1.97;1.20;;;8.30;42.00;;;;;;5537097;25;20325;-65
2024/04/20 11:19:41;;;;;;;2.23;1.30;;;8.50;7.80;;;;;;5543412;25;20231;-65
2024/04/20 11:22:34;;;;;;;1.27;0.83;;;8.40;1.00;;;;;;5539685;25;20238;-64
2024/04/20 11:25:23;;;;;;;1.53;1.23;;;8.40;1.00;;;;;;5535697;25;20338;-65
2024/04/20 11:28:12;;;;;;;2.20;0.77;;;8.10;1.00;;;;;;5546102;25;20338;-64
2024/04/20 11:31:02;;;;;;;2.03;1.63;;;7.90;99.90;;;;;;5558721;25;20744;-65
2024/04/20 11:33:51;;;;;;;2.83;1.63;;;7.70;1.00;;;;;;5560455;25;20230;-65
2024/04/20 11:36:42;;;;;;;2.20;1.40;;;7.70;99.90;;;;;;5559516;25;20229;-65
2024/04/20 11:39:34;;;;;;;3.20;1.57;;;7.80;99.90;;;;;;5536496;25;20399;-65
2024/04/20 11:42:23;;;;;;;3.07;1.50;;;8.00;99.90;;;;;;5536358;25;20235;-65
2024/04/20 11:45:15;;;;;;;2.13;1.30;;;7.70;99.90;;;;;;5533092;25;20284;-64
2024/04/20 11:48:09;;;;;;;0.73;0.70;;;7.70;99.90;;;;;;5525540;25;20722;-64
2024/04/20 11:51:04;;;;;;;8.53;0.90;;;7.40;3.00;;;;;;5537040;25;20303;-64
2024/04/20 11:57:09;;;;;;;2.70;1.37;;;6.20;99.90;;;;;;5538311;25;20225;-64
2024/04/20 11:59:58;;;;;;;4.27;1.40;;;6.30;1.00;;;;;;5558157;25;20241;-65
2024/04/20 12:02:48;;;;;;;1.33;1.10;;;6.50;1.00;;;;;;5543065;25;20235;-64
2024/04/20 12:05:38;;;;;;;5.50;1.30;;;6.90;1.00;;;;;;5536406;25;20230;-65
2024/04/20 12:08:28;;;;;;;2.23;1.30;;;7.00;99.90;;;;;;5533560;25;20237;-65
2024/04/20 12:11:17;;;;;;;1.43;1.23;;;7.50;99.90;;;;;;5532638;25;20628;-64
2024/04/20 12:14:09;;;;;;;2.33;1.63;;;8.00;99.90;;;;;;5555008;25;20334;-64
2024/04/20 12:16:59;;;;;;;4.43;2.00;;;8.40;86.60;;;;;;5537722;25;20231;-65
2024/04/20 12:19:48;;;;;;;3.93;2.70;;;8.40;1.00;;;;;;5559932;25;20228;-64
2024/04/20 12:22:38;;;;;;;4.17;2.30;;;8.10;35.50;;;;;;5553822;25;20634;-65
2024/04/20 12:25:27;;;;;;;5.57;2.60;;;8.00;1.00;;;;;;5554772;25;20331;-66
2024/04/20 12:28:16;;;;;;;3.93;2.37;;;7.90;1.00;;;;;;5548425;25;20330;-64
2024/04/20 12:31:08;;;;;;;2.43;1.83;;;7.70;1.00;;;;;;5551271;25;20271;-64
2024/04/20 12:34:00;;;;;;;4.23;1.47;;;7.80;1.00;;;;;;5552584;25;20238;-64
2024/04/20 12:36:51;;;;;;;4.20;2.17;;;7.80;1.00;;;;;;5530875;25;20270;-65
2024/04/20 12:39:41;;;;;;;5.93;2.30;;;7.80;1.00;;;;;;5544899;25;20242;-64
2024/04/20 12:42:30;;;;;;;3.10;2.00;;;8.00;99.90;;;;;;5546787;25;20351;-64
2024/04/20 12:45:20;;;;;;;1.07;0.90;;;8.00;1.00;;;;;;5550811;25;21574;-65
2024/04/20 12:48:12;;;;;;;2.90;1.70;;;8.20;25.70;;;;;;5549128;25;20274;-64
2024/04/20 12:51:01;;;;;;;3.03;1.53;;;8.50;1.00;;;;;;5507759;25;20231;-65
2024/04/20 12:53:51;;;;;;;3.03;1.60;;;8.20;1.00;;;;;;5544113;25;20241;-65
2024/04/20 12:56:40;;;;;;;1.90;1.37;;;8.50;94.60;;;;;;5497913;25;20672;-64
2024/04/20 12:59:29;;;;;;;0.70;0.60;;;8.70;1.00;;;;;;5518403;25;20230;-65
2024/04/20 13:02:18;;;;;;;3.67;1.20;;;9.10;1.00;;;;;;5503593;25;20284;-64
2024/04/20 13:05:12;;;;;;;2.47;1.70;;;8.60;1.00;;;;;;5504583;25;20290;-65
2024/04/20 13:08:01;;;;;;;1.70;1.43;;;8.80;1.00;;;;;;5501837;25;20571;-65
2024/04/20 13:10:54;;;;;;;3.90;1.47;;;9.20;1.00;;;;;;5487844;26;20305;-65
2024/04/20 13:13:44;;;;;;;2.10;1.30;;;9.10;1.00;;;;;;5484893;26;20261;-65
2024/04/20 13:16:33;;;;;;;2.03;1.20;;;9.50;99.90;;;;;;5501101;25;20296;-65
2024/04/20 13:19:25;;;;;;;3.23;1.00;;;9.90;99.90;;;;;;5514823;25;20317;-65
2024/04/20 13:22:17;;;;;;;2.27;1.10;;;9.60;99.90;;;;;;5499974;25;20235;-65
2024/04/20 13:25:06;;;;;;;3.17;1.43;;;9.80;99.90;;;;;;5497565;25;20666;-65
2024/04/20 13:27:57;;;;;;;1.73;1.17;;;9.90;1.00;;;;;;5499571;26;20285;-65
2024/04/20 13:30:46;;;;;;;1.10;0.80;;;9.60;15.70;;;;;;5532552;25;20275;-64
2024/04/20 13:33:35;;;;;;;2.70;0.90;;;9.30;99.90;;;;;;5483776;26;20732;-65
2024/04/20 13:36:25;;;;;;;1.53;0.70;;;9.70;99.90;;;;;;5516510;25;20288;-64
2024/04/20 13:39:17;;;;;;;1.50;1.20;;;10.20;47.90;;;;;;5483287;26;20712;-66
2024/04/20 13:42:07;;;;;;;1.50;1.20;;;10.00;25.30;;;;;;5483094;26;20638;-65
2024/04/20 13:44:57;;;;;;;1.57;1.20;;;9.60;99.90;;;;;;5510916;25;20286;-64
2024/04/20 13:47:46;;;;;;;1.53;0.97;;;9.30;99.90;;;;;;5491932;26;20237;-65
2024/04/20 13:50:39;;;;;;;2.23;1.30;;;9.60;99.90;;;;;;5506860;25;20835;-64
2024/04/20 13:53:29;;;;;;;1.90;1.37;;;9.20;99.90;;;;;;5527016;25;20230;-65
2024/04/20 13:56:23;;;;;;;1.60;1.10;;;9.30;99.90;;;;;;5492962;25;20338;-65
2024/04/20 13:59:14;;;;;;;1.47;1.07;;;9.80;99.90;;;;;;5486070;26;20579;-65
2024/04/20 14:02:04;;;;;;;1.90;1.50;;;10.10;99.90;;;;;;5523402;25;20634;-65
2024/04/20 14:04:53;;;;;;;6.30;1.20;;;10.60;99.90;;;;;;5492846;25;20224;-66
2024/04/20 14:07:45;;;;;;;6.63;2.70;;;10.80;23.10;;;;;;5506592;26;20661;-64
2024/04/20 14:10:34;;;;;;;2.80;1.73;;;11.20;70.60;;;;;;5489772;25;20230;-65
2024/04/20 14:13:26;;;;;;;5.77;1.20;;;10.80;99.90;;;;;;5513969;26;20772;-65
2024/04/20 14:16:16;;;;;;;1.97;1.40;;;10.40;96.40;;;;;;5490757;25;20230;-65
2024/04/20 14:19:05;;;;;;;2.47;1.60;;;10.20;94.30;;;;;;5503167;25;20303;-65
2024/04/20 14:21:54;;;;;;;3.63;1.33;;;10.20;99.90;;;;;;5485556;26;20240;-65
2024/04/20 14:24:46;;;;;;;2.50;1.53;;;10.10;99.90;;;;;;5486481;26;20290;-65
2024/04/20 14:27:36;;;;;;;1.83;1.43;;;10.10;1.00;;;;;;5505954;25;20341;-65
2024/04/20 14:30:28;;;;;;;2.27;1.60;;;9.90;64.40;;;;;;5498950;25;20711;-65
2024/04/20 14:33:17;;;;;;;4.97;1.67;;;9.40;99.90;;;;;;5484147;26;20282;-64
2024/04/20 14:36:14;;;;;;;3.63;1.50;;;9.60;99.90;;;;;;5486587;26;20288;-65
2024/04/20 14:39:05;;;;;;;3.17;1.77;;;9.20;99.90;;;;;;5485467;26;20233;-65
2024/04/20 14:41:54;;;;;;;1.77;1.07;;;9.30;99.90;;;;;;5509945;26;20316;-65
2024/04/20 14:44:43;;;;;;;1.87;1.47;;;8.90;99.90;;;;;;5506817;25;20224;-65
2024/04/20 14:47:36;;;;;;;6.93;3.10;;;8.80;99.90;;;;;;5504034;26;20620;-65
2024/04/20 14:50:25;;;;;;;8.17;3.57;;;8.30;1.00;;;;;;5483172;26;20232;-65
2024/04/20 14:53:14;;;;;;;7.07;4.07;;;7.90;39.40;;;;;;5511833;25;20237;-65
2024/04/20 14:56:04;;;;;;;6.23;4.07;;;7.50;99.90;;;;;;5500351;25;20243;-66
2024/04/20 14:58:54;;;;;;;5.33;3.53;;;7.40;99.90;;;;;;5516821;25;20663;-65
2024/04/20 15:01:43;;;;;;;6.57;4.00;;;7.40;99.90;;;;;;5509586;25;20298;-65
2024/04/20 15:04:35;;;;;;;7.03;3.83;;;7.40;99.90;;;;;;5525427;25;20286;-65